Time;durP1;ratioP1;P1;durP2;ratioP2;P2;SDS_P1;SDS_P2;PMS_P1;PMS_P2;Temp;Humidity;BMP_temperature;BMP_pressure;BME280_temperature;BME280_humidity;BME280_pressure;Samples;Min_cycle;Max_cycle;Signal;HPM_P1;HPM_P2
2022/04/25 00:00:42;;;;;;;;;;;11.30;99.90;;;;;;5026669;28;19913;-54
2022/04/25 00:03:07;;;;;;;;;;;11.20;99.90;;;;;;5026617;28;20047;-54
2022/04/25 00:05:33;;;;;;;;;;;11.20;99.90;;;;;;5024734;28;19928;-55
2022/04/25 00:07:58;;;;;;;;;;;11.30;99.90;;;;;;5020582;28;19924;-54
2022/04/25 00:10:23;;;;;;;;;;;11.30;99.90;;;;;;5025525;28;19909;-52
2022/04/25 00:12:49;;;;;;;;;;;11.30;99.90;;;;;;5025269;28;20052;-55
2022/04/25 00:15:15;;;;;;;;;;;11.30;99.90;;;;;;5023095;28;19936;-56
2022/04/25 00:17:40;;;;;;;;;;;11.30;99.90;;;;;;5025768;28;19909;-53
2022/04/25 00:20:07;;;;;;;;;;;11.30;99.90;;;;;;5023613;28;19981;-55
2022/04/25 00:22:32;;;;;;;;;;;11.40;99.90;;;;;;5026943;28;19945;-53
2022/04/25 00:24:58;;;;;;;;;;;11.40;99.90;;;;;;5024939;28;19913;-55
2022/04/25 00:27:25;;;;;;;;;;;11.40;99.90;;;;;;5029372;28;19913;-53
2022/04/25 00:29:50;;;;;;;;;;;11.40;99.90;;;;;;5024555;28;19963;-52
2022/04/25 00:32:16;;;;;;;;;;;11.40;99.90;;;;;;5027135;28;19940;-55
2022/04/25 00:34:41;;;;;;;;;;;11.30;99.90;;;;;;5026212;28;19999;-55
2022/04/25 00:37:07;;;;;;;;;;;11.20;99.90;;;;;;5029424;28;20326;-55
2022/04/25 00:39:33;;;;;;;;;;;11.10;99.90;;;;;;5027211;28;19915;-50
2022/04/25 00:41:58;;;;;;;;;;;10.90;99.90;;;;;;5029844;28;19909;-52
2022/04/25 00:44:24;;;;;;;;;;;10.70;99.90;;;;;;5028208;28;19913;-51
2022/04/25 00:46:52;;;;;;;;;;;10.60;99.90;;;;;;5030681;28;19963;-55
2022/04/25 00:49:17;;;;;;;;;;;10.40;99.90;;;;;;5029298;28;20003;-57
2022/04/25 00:51:43;;;;;;;;;;;10.30;99.90;;;;;;5028681;28;20355;-53
2022/04/25 00:54:08;;;;;;;;;;;10.30;99.90;;;;;;5026411;28;19909;-55
2022/04/25 00:56:35;;;;;;;;;;;10.30;99.90;;;;;;5025448;28;19952;-54
2022/04/25 00:59:00;;;;;;;;;;;10.30;99.90;;;;;;5027777;28;20429;-54
2022/04/25 01:01:27;;;;;;;;;;;10.30;99.90;;;;;;5027287;28;19916;-53
2022/04/25 01:03:53;;;;;;;;;;;10.20;99.90;;;;;;5027068;28;20413;-57
2022/04/25 01:06:18;;;;;;;;;;;10.20;99.90;;;;;;5029157;28;19949;-54
2022/04/25 01:08:45;;;;;;;;;;;10.20;99.90;;;;;;5020642;28;20394;-55
2022/04/25 01:11:12;;;;;;;;;;;10.10;99.90;;;;;;5027413;28;20438;-52
2022/04/25 01:13:38;;;;;;;;;;;10.00;99.90;;;;;;5022662;28;19924;-57
2022/04/25 01:16:03;;;;;;;;;;;10.00;99.90;;;;;;5027138;28;19916;-56
2022/04/25 01:18:28;;;;;;;;;;;9.90;99.90;;;;;;5032473;28;19913;-52
2022/04/25 01:20:56;;;;;;;;;;;9.90;99.90;;;;;;5029007;28;19980;-52
2022/04/25 01:28:53;;;;;;;;;;;9.80;99.90;;;;;;5028249;28;20401;-56
2022/04/25 01:31:18;;;;;;;;;;;9.80;99.90;;;;;;5030621;28;19920;-56
2022/04/25 01:33:44;;;;;;;;;;;9.70;99.90;;;;;;5033496;28;20257;-53
2022/04/25 01:36:10;;;;;;;;;;;9.70;99.90;;;;;;5032950;28;19908;-55
2022/04/25 01:38:35;;;;;;;;;;;9.60;99.90;;;;;;5031473;28;19916;-55
2022/04/25 01:41:01;;;;;;;;;;;9.50;99.90;;;;;;5030724;28;19918;-56
2022/04/25 01:43:26;;;;;;;;;;;9.40;99.90;;;;;;5028155;28;19913;-56
2022/04/25 01:45:52;;;;;;;;;;;9.30;99.90;;;;;;5031524;28;20330;-55
2022/04/25 01:48:17;;;;;;;;;;;9.20;99.90;;;;;;5030222;28;19916;-56
2022/04/25 01:50:43;;;;;;;;;;;9.10;99.90;;;;;;5030426;28;19919;-55
2022/04/25 01:53:08;;;;;;;;;;;9.10;99.90;;;;;;5026155;28;19917;-55
2022/04/25 01:55:34;;;;;;;;;;;9.00;99.90;;;;;;5028768;28;19920;-58
2022/04/25 01:57:59;;;;;;;;;;;8.90;99.90;;;;;;5027717;28;19909;-52
2022/04/25 02:00:26;;;;;;;;;;;8.80;99.90;;;;;;5026028;28;19917;-56
2022/04/25 02:02:51;;;;;;;;;;;8.70;99.90;;;;;;5026580;28;19996;-52
2022/04/25 02:05:17;;;;;;;;;;;8.60;99.90;;;;;;5020745;28;20096;-55
2022/04/25 02:07:42;;;;;;;;;;;8.60;99.90;;;;;;5031276;28;19909;-54
2022/04/25 02:10:08;;;;;;;;;;;8.60;99.90;;;;;;5028444;28;20386;-57
2022/04/25 02:12:34;;;;;;;;;;;8.60;99.90;;;;;;5029268;28;19905;-57
2022/04/25 02:15:00;;;;;;;;;;;8.50;99.90;;;;;;5026345;28;19959;-56
2022/04/25 02:17:26;;;;;;;;;;;8.50;99.90;;;;;;5031911;28;19949;-55
2022/04/25 02:19:51;;;;;;;;;;;8.50;99.90;;;;;;5031902;28;19944;-55
2022/04/25 02:22:17;;;;;;;;;;;8.60;99.90;;;;;;5031847;28;19921;-56
2022/04/25 02:24:43;;;;;;;;;;;8.60;99.90;;;;;;5030278;28;19936;-55
2022/04/25 02:27:08;;;;;;;;;;;8.70;99.90;;;;;;5030252;28;20363;-57
2022/04/25 02:29:35;;;;;;;;;;;8.70;99.90;;;;;;5025323;28;19913;-55
2022/04/25 02:32:01;;;;;;;;;;;8.70;99.90;;;;;;5029760;28;19912;-51
2022/04/25 02:34:28;;;;;;;;;;;8.70;99.90;;;;;;5028302;28;19913;-55
2022/04/25 02:36:55;;;;;;;;;;;8.70;99.90;;;;;;5031050;28;20290;-51
2022/04/25 02:39:24;;;;;;;;;;;8.70;99.90;;;;;;5027922;28;20329;-55
2022/04/25 02:41:49;;;;;;;;;;;8.70;99.90;;;;;;5032967;28;20438;-55
2022/04/25 02:44:15;;;;;;;;;;;8.60;99.90;;;;;;5028884;28;19996;-57
2022/04/25 02:46:40;;;;;;;;;;;8.60;99.90;;;;;;5026641;28;19963;-56
2022/04/25 02:49:06;;;;;;;;;;;8.50;99.90;;;;;;5030946;28;19909;-56
2022/04/25 02:51:31;;;;;;;;;;;8.50;99.90;;;;;;5022786;28;19913;-58
2022/04/25 02:53:57;;;;;;;;;;;8.50;99.90;;;;;;5030173;28;20446;-55
2022/04/25 02:56:22;;;;;;;;;;;8.40;99.90;;;;;;5024639;28;19909;-57
2022/04/25 02:58:48;;;;;;;;;;;8.50;99.90;;;;;;5023242;28;19939;-50
2022/04/25 03:01:13;;;;;;;;;;;8.40;99.90;;;;;;5023437;28;19909;-57
2022/04/25 03:03:39;;;;;;;;;;;8.40;99.90;;;;;;5029410;28;19943;-55
2022/04/25 03:06:06;;;;;;;;;;;8.40;99.90;;;;;;5028676;28;19909;-56
2022/04/25 03:08:31;;;;;;;;;;;8.30;99.90;;;;;;5030487;28;19913;-58
2022/04/25 03:10:57;;;;;;;;;;;8.30;99.90;;;;;;5025783;28;19919;-55
2022/04/25 03:13:24;;;;;;;;;;;8.30;99.90;;;;;;5027033;28;20025;-53
2022/04/25 03:15:50;;;;;;;;;;;8.30;99.90;;;;;;5030064;28;19916;-55
2022/04/25 03:18:18;;;;;;;;;;;8.30;99.90;;;;;;5027017;28;20286;-54
2022/04/25 03:20:44;;;;;;;;;;;8.40;99.90;;;;;;5031187;28;20046;-56
2022/04/25 03:23:10;;;;;;;;;;;8.40;99.90;;;;;;5028815;28;19909;-56
2022/04/25 03:25:37;;;;;;;;;;;8.40;99.90;;;;;;5026514;28;20425;-54
2022/04/25 03:28:03;;;;;;;;;;;8.50;99.90;;;;;;5027522;28;20396;-55
2022/04/25 03:30:28;;;;;;;;;;;8.50;99.90;;;;;;5024791;28;19909;-55
2022/04/25 03:32:56;;;;;;;;;;;8.50;99.90;;;;;;5027886;28;20390;-52
2022/04/25 03:35:22;;;;;;;;;;;8.50;99.90;;;;;;5046847;22;19928;-63
2022/04/25 03:37:48;;;;;;;;;;;8.60;99.90;;;;;;5030123;28;19909;-61
2022/04/25 03:40:13;;;;;;;;;;;8.50;99.90;;;;;;5028214;28;19931;-63
2022/04/25 03:42:40;;;;;;;;;;;8.50;99.90;;;;;;5029067;28;19967;-60
2022/04/25 03:45:06;;;;;;;;;;;8.50;99.90;;;;;;5023542;28;19976;-63
2022/04/25 03:47:31;;;;;;;;;;;8.50;99.90;;;;;;5021158;28;19935;-61
2022/04/25 03:49:57;;;;;;;;;;;8.50;99.90;;;;;;5023700;28;19909;-60
2022/04/25 03:52:23;;;;;;;;;;;8.50;99.90;;;;;;5026098;28;19916;-62
2022/04/25 03:57:32;;;;;;;;;;;8.50;99.90;;;;;;5025495;28;19970;-62
2022/04/25 03:59:58;;;;;;;;;;;8.50;99.90;;;;;;5027670;28;19913;-66
2022/04/25 04:02:23;;;;;;;;;;;8.50;99.90;;;;;;5022204;28;20209;-61
2022/04/25 04:04:49;;;;;;;;;;;8.50;99.90;;;;;;5022084;28;19944;-63
2022/04/25 04:07:15;;;;;;;;;;;8.60;99.90;;;;;;5024386;28;19940;-63
2022/04/25 04:09:47;;;;;;;;;;;8.60;99.90;;;;;;5024508;28;19960;-62
2022/04/25 04:12:13;;;;;;;;;;;8.60;99.90;;;;;;5023479;28;19952;-65
2022/04/25 04:14:42;;;;;;;;;;;8.50;99.90;;;;;;5025868;28;19909;-62
2022/04/25 04:17:08;;;;;;;;;;;8.60;99.90;;;;;;5022155;28;19959;-61
2022/04/25 04:19:34;;;;;;;;;;;8.60;99.90;;;;;;5025199;28;19913;-64
2022/04/25 04:22:02;;;;;;;;;;;8.60;99.90;;;;;;5019442;28;19916;-61
2022/04/25 04:24:28;;;;;;;;;;;8.50;99.90;;;;;;5020449;28;19921;-60
2022/04/25 04:26:55;;;;;;;;;;;8.50;99.90;;;;;;5024852;28;20334;-62
2022/04/25 04:29:21;;;;;;;;;;;8.50;99.90;;;;;;5028343;28;20283;-63
2022/04/25 04:31:46;;;;;;;;;;;8.50;99.90;;;;;;5027448;28;19909;-63
2022/04/25 04:34:12;;;;;;;;;;;8.50;99.90;;;;;;5023087;28;19917;-62
2022/04/25 04:36:37;;;;;;;;;;;8.50;99.90;;;;;;5023543;28;19913;-61
2022/04/25 04:39:03;;;;;;;;;;;8.50;99.90;;;;;;5022550;28;19913;-63
2022/04/25 04:41:28;;;;;;;;;;;8.50;99.90;;;;;;5021952;28;19962;-63
2022/04/25 04:43:57;;;;;;;;;;;8.50;99.90;;;;;;5023758;28;20252;-61
2022/04/25 04:46:26;;;;;;;;;;;8.60;99.90;;;;;;5025315;28;19913;-62
2022/04/25 04:48:51;;;;;;;;;;;8.60;99.90;;;;;;5028059;28;19905;-60
2022/04/25 04:51:17;;;;;;;;;;;8.70;99.90;;;;;;5023423;28;19916;-60
2022/04/25 04:53:42;;;;;;;;;;;8.70;99.90;;;;;;5025104;28;19954;-61
2022/04/25 04:56:08;;;;;;;;;;;8.70;99.90;;;;;;5026284;28;20031;-61
2022/04/25 04:58:33;;;;;;;;;;;8.70;99.90;;;;;;5026096;28;19955;-58
2022/04/25 05:00:59;;;;;;;;;;;8.70;99.90;;;;;;5024844;28;19909;-58
2022/04/25 05:03:25;;;;;;;;;;;8.70;99.90;;;;;;5028352;28;19987;-57
2022/04/25 05:05:54;;;;;;;;;;;8.60;99.90;;;;;;5025694;28;19913;-62
2022/04/25 05:08:20;;;;;;;;;;;8.60;99.90;;;;;;5027138;28;19913;-63
2022/04/25 05:10:46;;;;;;;;;;;8.60;99.90;;;;;;5023547;28;19909;-61
2022/04/25 05:13:11;;;;;;;;;;;8.60;99.90;;;;;;5026675;28;20370;-52
2022/04/25 05:15:37;;;;;;;;;;;8.60;99.90;;;;;;5024677;28;20413;-51
2022/04/25 05:18:03;;;;;;;;;;;8.70;99.90;;;;;;5027413;28;19905;-53
2022/04/25 05:20:29;;;;;;;;;;;8.70;99.90;;;;;;5021392;28;19909;-55
2022/04/25 05:22:54;;;;;;;;;;;8.80;99.90;;;;;;5026051;28;20019;-55
2022/04/25 05:25:21;;;;;;;;;;;8.80;99.90;;;;;;5025564;28;19921;-60
2022/04/25 05:27:47;;;;;;;;;;;8.80;99.90;;;;;;5025969;28;20405;-55
2022/04/25 05:30:13;;;;;;;;;;;8.80;99.90;;;;;;5028394;28;19913;-56
2022/04/25 05:32:46;;;;;;;;;;;8.90;99.90;;;;;;5028052;28;19913;-57
2022/04/25 05:35:12;;;;;;;;;;;8.90;99.90;;;;;;5026790;28;19923;-52
2022/04/25 05:37:38;;;;;;;;;;;8.90;99.90;;;;;;5028855;28;19979;-52
2022/04/25 05:40:04;;;;;;;;;;;9.00;99.90;;;;;;5027408;28;20354;-53
2022/04/25 05:42:30;;;;;;;;;;;9.00;99.90;;;;;;5028131;28;19966;-56
2022/04/25 05:44:55;;;;;;;;;;;9.00;99.90;;;;;;5023152;28;20363;-56
2022/04/25 05:47:21;;;;;;;;;;;9.00;99.90;;;;;;5026532;28;19928;-53
2022/04/25 05:52:30;;;;;;;;;;;9.00;99.90;;;;;;5031577;28;19939;-53
2022/04/25 05:54:56;;;;;;;;;;;9.00;99.90;;;;;;5028773;28;19909;-59
2022/04/25 05:57:22;;;;;;;;;;;9.10;99.90;;;;;;5030052;28;20513;-54
2022/04/25 05:59:48;;;;;;;;;;;9.20;99.90;;;;;;5028439;28;20007;-60
2022/04/25 06:02:16;;;;;;;;;;;9.20;99.90;;;;;;5023634;28;20003;-57
2022/04/25 06:04:42;;;;;;;;;;;9.20;99.90;;;;;;5029682;28;19917;-57
2022/04/25 06:07:08;;;;;;;;;;;9.20;99.90;;;;;;5032028;28;20429;-57
2022/04/25 06:09:34;;;;;;;;;;;9.20;99.90;;;;;;5026540;28;20842;-55
2022/04/25 06:12:00;;;;;;;;;;;9.20;99.90;;;;;;5035680;28;19909;-55
2022/04/25 06:14:25;;;;;;;;;;;9.30;99.90;;;;;;5029349;28;19909;-56
2022/04/25 06:16:51;;;;;;;;;;;9.40;99.90;;;;;;5030456;28;19909;-55
2022/04/25 06:19:17;;;;;;;;;;;9.50;99.90;;;;;;5030399;28;19909;-56
2022/04/25 06:21:42;;;;;;;;;;;9.60;99.90;;;;;;5029602;28;19920;-56
2022/04/25 06:24:08;;;;;;;;;;;9.60;99.90;;;;;;5030517;28;19920;-59
2022/04/25 06:26:34;;;;;;;;;;;9.60;99.90;;;;;;5031282;28;21155;-57
2022/04/25 06:28:59;;;;;;;;;;;9.50;99.90;;;;;;5037174;28;19905;-53
2022/04/25 06:31:25;;;;;;;;;;;9.60;99.90;;;;;;5027263;28;19909;-57
2022/04/25 06:33:50;;;;;;;;;;;9.50;99.90;;;;;;5024766;28;19905;-54
2022/04/25 06:36:16;;;;;;;;;;;9.50;99.90;;;;;;5028556;28;19967;-55
2022/04/25 06:38:41;;;;;;;;;;;9.50;99.90;;;;;;5028177;28;19911;-56
2022/04/25 06:41:07;;;;;;;;;;;9.60;99.90;;;;;;5028587;28;19932;-56
2022/04/25 06:43:32;;;;;;;;;;;9.70;99.90;;;;;;5027158;28;19921;-53
2022/04/25 06:45:58;;;;;;;;;;;9.70;99.90;;;;;;5027960;28;19971;-56
2022/04/25 06:48:24;;;;;;;;;;;9.80;99.90;;;;;;5028609;28;19964;-56
2022/04/25 06:50:50;;;;;;;;;;;9.90;99.90;;;;;;5030679;28;19909;-56
2022/04/25 06:53:15;;;;;;;;;;;10.00;99.90;;;;;;5029832;28;20026;-56
2022/04/25 06:55:41;;;;;;;;;;;10.00;99.90;;;;;;5023991;28;20682;-54
2022/04/25 06:58:06;;;;;;;;;;;9.90;99.90;;;;;;5024700;28;19932;-58
2022/04/25 07:00:32;;;;;;;;;;;9.90;99.90;;;;;;5027203;28;19944;-53
2022/04/25 07:02:58;;;;;;;;;;;10.00;99.90;;;;;;5022817;28;19951;-54
2022/04/25 07:05:24;;;;;;;;;;;10.00;99.90;;;;;;5028063;28;19952;-55
2022/04/25 07:07:50;;;;;;;;;;;10.10;99.90;;;;;;5030593;28;19905;-57
2022/04/25 07:10:15;;;;;;;;;;;10.10;99.90;;;;;;5022784;28;20268;-55
2022/04/25 07:12:42;;;;;;;;;;;10.10;99.90;;;;;;5027693;28;19915;-55
2022/04/25 07:15:07;;;;;;;;;;;10.20;99.90;;;;;;5027845;28;19905;-55
2022/04/25 07:17:33;;;;;;;;;;;10.30;99.90;;;;;;5021647;28;19912;-56
2022/04/25 07:19:58;;;;;;;;;;;10.40;99.90;;;;;;5024505;28;20016;-52
2022/04/25 07:30:36;;;;;;;;;;;10.50;99.90;;;;;;5023200;28;20490;-56
2022/04/25 07:33:02;;;;;;;;;;;10.60;99.90;;;;;;5024968;28;20027;-54
2022/04/25 07:35:28;;;;;;;;;;;10.50;99.90;;;;;;5022003;28;20000;-59
2022/04/25 07:37:55;;;;;;;;;;;10.60;99.90;;;;;;5028134;28;19905;-54
2022/04/25 07:40:21;;;;;;;;;;;10.50;99.90;;;;;;5022892;28;19919;-54
2022/04/25 07:42:47;;;;;;;;;;;10.50;99.90;;;;;;5029041;28;19905;-56
2022/04/25 07:45:12;;;;;;;;;;;10.50;99.90;;;;;;5026577;28;20420;-52
2022/04/25 07:47:42;;;;;;;;;;;10.30;99.90;;;;;;5026438;28;20287;-57
2022/04/25 07:50:09;;;;;;;;;;;10.30;99.90;;;;;;5018443;28;19939;-55
2022/04/25 07:52:34;;;;;;;;;;;10.20;99.90;;;;;;5028173;28;19909;-56
2022/04/25 07:55:00;;;;;;;;;;;10.30;99.90;;;;;;5016646;28;20298;-60
2022/04/25 07:57:25;;;;;;;;;;;10.40;99.90;;;;;;5026378;28;19909;-55
2022/04/25 07:59:51;;;;;;;;;;;10.50;99.90;;;;;;5024329;28;19909;-56
2022/04/25 08:02:19;;;;;;;;;;;10.40;99.90;;;;;;5025968;28;19960;-54
2022/04/25 08:04:47;;;;;;;;;;;10.50;99.90;;;;;;5029752;28;19919;-54
2022/04/25 08:07:13;;;;;;;;;;;10.50;99.90;;;;;;5026095;28;20275;-56
2022/04/25 08:09:38;;;;;;;;;;;10.60;99.90;;;;;;5026008;28;19967;-52
2022/04/25 08:20:16;;;;;;;;;;;10.80;99.90;;;;;;5028729;28;20365;-54
2022/04/25 08:22:42;;;;;;;;;;;10.90;99.90;;;;;;5026134;28;19928;-55
2022/04/25 08:25:09;;;;;;;;;;;11.00;99.90;;;;;;5027206;28;19920;-53
2022/04/25 08:27:34;;;;;;;;;;;11.00;99.90;;;;;;5030292;28;19908;-53
2022/04/25 08:30:00;;;;;;;;;;;11.20;99.90;;;;;;5031731;28;20381;-54
2022/04/25 08:32:25;;;;;;;;;;;11.40;99.90;;;;;;5029707;28;19920;-55
2022/04/25 08:34:51;;;;;;;;;;;11.50;99.90;;;;;;5035610;28;19947;-55
2022/04/25 08:37:16;;;;;;;;;;;11.60;99.90;;;;;;5028202;28;19943;-55
2022/04/25 08:39:42;;;;;;;;;;;11.60;99.90;;;;;;5029587;28;19913;-53
2022/04/25 08:42:09;;;;;;;;;;;11.60;99.90;;;;;;5024872;28;20417;-54
2022/04/25 08:44:34;;;;;;;;;;;11.60;99.90;;;;;;5031407;28;19913;-54
2022/04/25 08:47:00;;;;;;;;;;;11.60;99.90;;;;;;5030832;28;19963;-56
2022/04/25 08:49:26;;;;;;;;;;;11.60;99.90;;;;;;5021807;28;19911;-55
2022/04/25 08:51:58;;;;;;;;;;;11.60;99.90;;;;;;5028773;28;19908;-54
2022/04/25 08:54:30;;;;;;;;;;;11.60;99.90;;;;;;5031072;28;19935;-53
2022/04/25 08:56:56;;;;;;;;;;;11.80;99.90;;;;;;5033026;28;19976;-57
2022/04/25 08:59:23;;;;;;;;;;;11.90;99.90;;;;;;5030579;28;19909;-53
2022/04/25 09:01:49;;;;;;;;;;;11.90;99.90;;;;;;5028148;28;19920;-56
2022/04/25 09:04:14;;;;;;;;;;;11.90;99.90;;;;;;5031882;28;19909;-57
2022/04/25 09:06:40;;;;;;;;;;;11.80;99.90;;;;;;5030163;28;19909;-56
2022/04/25 09:09:06;;;;;;;;;;;11.80;99.90;;;;;;5030350;28;19909;-54
2022/04/25 09:14:16;;;;;;;;;;;11.80;99.90;;;;;;5029245;28;19916;-55
2022/04/25 09:16:41;;;;;;;;;;;12.00;99.90;;;;;;5029748;28;19996;-52
2022/04/25 09:19:07;;;;;;;;;;;12.10;99.90;;;;;;5029659;28;20063;-57
2022/04/25 09:21:39;;;;;;;;;;;12.10;99.90;;;;;;5025747;28;20382;-54
2022/04/25 09:24:19;;;;;;;;;;;12.10;99.90;;;;;;5029691;28;20398;-58
2022/04/25 09:26:44;;;;;;;;;;;12.30;99.90;;;;;;5031763;28;19940;-56
2022/04/25 09:29:11;;;;;;;;;;;12.40;99.90;;;;;;5024963;28;19960;-57
2022/04/25 09:31:46;;;;;;;;;;;12.50;99.90;;;;;;5026349;28;19920;-57
2022/04/25 09:36:46;;;;;;;;;;;12.70;99.90;;;;;;5105255;22;19932;-61
2022/04/25 09:39:28;;;;;;;;;;;12.60;99.90;;;;;;5092312;28;20369;-61
2022/04/25 09:41:53;;;;;;;;;;;12.60;99.90;;;;;;5090747;28;19912;-62
2022/04/25 09:44:18;;;;;;;;;;;12.60;99.90;;;;;;5092027;28;19908;-59
2022/04/25 09:46:47;;;;;;;;;;;12.60;99.90;;;;;;5076034;28;20011;-61
2022/04/25 09:49:18;;;;;;;;;;;12.70;99.90;;;;;;5064473;28;19970;-61
2022/04/25 09:52:03;;;;;;;;;;;12.60;99.90;;;;;;5073452;28;20374;-62
2022/04/25 09:54:29;;;;;;;;;;;12.40;99.90;;;;;;5073150;28;19955;-59
2022/04/25 09:56:55;;;;;;;;;;;12.50;99.90;;;;;;5073413;28;19973;-62
2022/04/25 09:59:23;;;;;;;;;;;12.40;99.90;;;;;;5072071;28;20382;-63
2022/04/25 10:02:04;;;;;;;;;;;12.60;99.90;;;;;;5082598;28;19912;-61
2022/04/25 10:04:31;;;;;;;;;;;12.70;99.90;;;;;;5073177;28;19957;-62
2022/04/25 10:06:58;;;;;;;;;;;13.10;99.90;;;;;;5082866;28;20308;-60
2022/04/25 10:09:24;;;;;;;;;;;13.70;99.90;;;;;;5092592;28;20042;-62
2022/04/25 10:11:54;;;;;;;;;;;13.90;99.90;;;;;;5082237;28;19954;-61
2022/04/25 10:14:19;;;;;;;;;;;14.20;99.90;;;;;;5074520;28;20293;-61
2022/04/25 10:16:45;;;;;;;;;;;14.60;99.90;;;;;;5074866;28;19911;-63
2022/04/25 10:19:10;;;;;;;;;;;14.60;99.90;;;;;;5085798;28;19920;-63
2022/04/25 10:21:36;;;;;;;;;;;14.70;99.90;;;;;;5075911;28;19908;-63
2022/04/25 10:24:02;;;;;;;;;;;15.20;99.90;;;;;;5084306;28;19912;-62
2022/04/25 10:26:29;;;;;;;;;;;15.30;99.90;;;;;;5076355;28;19912;-62
2022/04/25 10:28:55;;;;;;;;;;;15.10;99.90;;;;;;5073765;28;20350;-61
2022/04/25 10:31:23;;;;;;;;;;;14.80;99.90;;;;;;5077952;28;20374;-60
2022/04/25 10:33:51;;;;;;;;;;;14.90;99.90;;;;;;5091950;28;19910;-59
2022/04/25 10:36:35;;;;;;;;;;;14.60;99.90;;;;;;5079537;28;19959;-63
2022/04/25 10:39:12;;;;;;;;;;;14.40;99.90;;;;;;5066389;28;20351;-60
2022/04/25 10:44:23;;;;;;;;;;;15.10;99.90;;;;;;5077269;28;19918;-59
2022/04/25 10:47:05;;;;;;;;;;;15.40;99.90;;;;;;5080585;28;19987;-63
2022/04/25 10:49:34;;;;;;;;;;;16.00;99.90;;;;;;5074908;28;19953;-61
2022/04/25 10:51:59;;;;;;;;;;;16.10;99.90;;;;;;5076243;28;19912;-59
2022/04/25 10:54:27;;;;;;;;;;;16.00;99.90;;;;;;5076039;28;19908;-63
2022/04/25 10:57:08;;;;;;;;;;;15.90;99.90;;;;;;5068008;28;19908;-59
2022/04/25 10:59:33;;;;;;;;;;;15.90;99.90;;;;;;5065064;28;19915;-61
2022/04/25 11:01:59;;;;;;;;;;;16.30;99.90;;;;;;5075224;28;20378;-61
2022/04/25 11:04:24;;;;;;;;;;;16.80;99.90;;;;;;5070189;28;19912;-61
2022/04/25 11:07:09;;;;;;;;;;;17.10;99.90;;;;;;5080405;28;19911;-60
2022/04/25 11:09:41;;;;;;;;;;;17.00;99.90;;;;;;5075701;28;20012;-60
2022/04/25 11:12:07;;;;;;;;;;;17.50;99.90;;;;;;5066895;28;19908;-58
2022/04/25 11:14:32;;;;;;;;;;;17.60;99.90;;;;;;5069585;28;19915;-59
2022/04/25 11:17:05;;;;;;;;;;;17.60;99.90;;;;;;5066289;28;19915;-60
2022/04/25 11:19:45;;;;;;;;;;;17.60;99.90;;;;;;5070884;28;19913;-61
2022/04/25 11:22:29;;;;;;;;;;;17.30;99.90;;;;;;5070116;28;19919;-61
2022/04/25 11:24:55;;;;;;;;;;;17.70;99.90;;;;;;5082198;28;19912;-62
2022/04/25 11:27:21;;;;;;;;;;;17.70;99.90;;;;;;5089442;28;19998;-60
2022/04/25 11:30:07;;;;;;;;;;;18.10;99.90;;;;;;5071823;28;19909;-60
2022/04/25 11:32:36;;;;;;;;;;;18.10;99.90;;;;;;5069799;28;19979;-60
2022/04/25 11:35:03;;;;;;;;;;;17.70;99.90;;;;;;5081631;28;20324;-60
2022/04/25 11:37:32;;;;;;;;;;;18.00;99.90;;;;;;5072149;28;19916;-62
2022/04/25 11:39:59;;;;;;;;;;;18.50;99.90;;;;;;5076311;28;20446;-61
2022/04/25 11:42:26;;;;;;;;;;;18.40;99.90;;;;;;5082237;28;20006;-62
2022/04/25 11:44:52;;;;;;;;;;;17.70;99.90;;;;;;5075725;28;19916;-61
2022/04/25 11:47:20;;;;;;;;;;;17.50;99.90;;;;;;5065001;28;20019;-62
2022/04/25 11:49:46;;;;;;;;;;;16.60;99.90;;;;;;5062868;28;20255;-60
2022/04/25 11:52:15;;;;;;;;;;;16.80;99.90;;;;;;5065655;28;19920;-62
2022/04/25 11:54:41;;;;;;;;;;;17.40;99.90;;;;;;5067946;28;20405;-61
2022/04/25 11:57:07;;;;;;;;;;;17.30;99.90;;;;;;5067117;28;19908;-61
2022/04/25 11:59:32;;;;;;;;;;;16.90;99.90;;;;;;5070811;28;20433;-61
2022/04/25 12:01:58;;;;;;;;;;;16.40;99.90;;;;;;5068479;28;19962;-65
2022/04/25 12:04:24;;;;;;;;;;;16.30;99.90;;;;;;5073447;28;19927;-61
2022/04/25 12:06:51;;;;;;;;;;;16.20;99.90;;;;;;5069887;28;20332;-61
2022/04/25 12:15:47;;;;;;;;;;;15.60;99.90;;;;;;5069528;28;19916;-60
2022/04/25 12:17:43;;;;;;;;;;;15.50;99.90;;;;;;5052382;28;19923;-60
2022/04/25 12:20:10;;;;;;;;;;;15.40;99.90;;;;;;5071729;28;19904;-58
2022/04/25 12:22:36;;;;;;;;;;;15.30;99.90;;;;;;5075952;28;19916;-61
2022/04/25 12:25:13;;;;;;;;;;;15.30;99.90;;;;;;5068466;28;19916;-60
2022/04/25 12:27:38;;;;;;;;;;;15.30;99.90;;;;;;5067678;28;19908;-57
2022/04/25 12:30:07;;;;;;;;;;;15.30;99.90;;;;;;5069226;28;19914;-62
2022/04/25 12:32:33;;;;;;;;;;;15.30;99.90;;;;;;5072098;28;19908;-60
2022/04/25 12:34:58;;;;;;;;;;;15.30;99.90;;;;;;5070796;28;19999;-62
2022/04/25 12:37:24;;;;;;;;;;;15.30;99.90;;;;;;5071223;28;19969;-62
2022/04/25 12:39:59;;;;;;;;;;;15.00;99.90;;;;;;5082265;28;20376;-60
2022/04/25 12:42:42;;;;;;;;;;;14.70;99.90;;;;;;5085204;28;19919;-62
2022/04/25 12:45:08;;;;;;;;;;;14.60;99.90;;;;;;5078460;28;19912;-57
2022/04/25 12:47:33;;;;;;;;;;;14.60;99.90;;;;;;5072819;28;19912;-62
2022/04/25 12:50:01;;;;;;;;;;;14.50;99.90;;;;;;5068213;28;19939;-59
2022/04/25 12:52:27;;;;;;;;;;;14.40;99.90;;;;;;5072681;28;19923;-62
2022/04/25 12:54:54;;;;;;;;;;;14.40;99.90;;;;;;5070525;28;20497;-61
2022/04/25 12:57:24;;;;;;;;;;;14.40;99.90;;;;;;5069579;28;19905;-62
2022/04/25 12:59:52;;;;;;;;;;;14.20;99.90;;;;;;5064997;28;19915;-60
2022/04/25 13:02:19;;;;;;;;;;;14.10;99.90;;;;;;5070960;28;20452;-62
2022/04/25 13:04:52;;;;;;;;;;;14.00;99.90;;;;;;5072365;28;19916;-61
2022/04/25 13:07:31;;;;;;;;;;;14.00;99.90;;;;;;5067332;28;19939;-61
2022/04/25 13:09:57;;;;;;;;;;;13.90;99.90;;;;;;5076378;28;20393;-58
2022/04/25 13:12:36;;;;;;;;;;;13.80;99.90;;;;;;5081793;28;20361;-61
2022/04/25 13:15:03;;;;;;;;;;;13.60;99.90;;;;;;5073772;28;19970;-60
2022/04/25 13:17:28;;;;;;;;;;;13.60;99.90;;;;;;5071145;28;20322;-58
2022/04/25 13:19:53;;;;;;;;;;;13.60;99.90;;;;;;5075292;28;19908;-61
2022/04/25 13:22:19;;;;;;;;;;;13.40;99.90;;;;;;5077321;28;19954;-57
2022/04/25 13:24:46;;;;;;;;;;;13.30;99.90;;;;;;5072958;28;20003;-61
2022/04/25 13:27:11;;;;;;;;;;;13.00;99.90;;;;;;5083469;28;19913;-60
2022/04/25 13:29:37;;;;;;;;;;;12.90;99.90;;;;;;5075518;28;19987;-60
2022/04/25 13:32:03;;;;;;;;;;;12.60;99.90;;;;;;5085106;28;19923;-58
2022/04/25 13:34:28;;;;;;;;;;;12.10;99.90;;;;;;5076093;28;19909;-60
2022/04/25 13:36:58;;;;;;;;;;;12.00;99.90;;;;;;5070171;28;19912;-59
2022/04/25 13:39:24;;;;;;;;;;;11.60;99.90;;;;;;5082612;28;19908;-61
2022/04/25 13:41:49;;;;;;;;;;;11.60;99.90;;;;;;5074267;28;19908;-60
2022/04/25 13:44:15;;;;;;;;;;;11.40;99.90;;;;;;5075520;28;19920;-60
2022/04/25 13:46:40;;;;;;;;;;;11.20;99.90;;;;;;5083511;28;20005;-61
2022/04/25 13:49:06;;;;;;;;;;;11.20;99.90;;;;;;5071873;28;20334;-59
2022/04/25 13:51:32;;;;;;;;;;;11.10;99.90;;;;;;5076473;28;19973;-60
2022/04/25 13:53:57;;;;;;;;;;;10.90;99.90;;;;;;5080808;28;20004;-60
2022/04/25 13:56:23;;;;;;;;;;;11.10;99.90;;;;;;5077276;28;20323;-61
2022/04/25 13:58:49;;;;;;;;;;;11.30;99.90;;;;;;5088283;28;19915;-56
2022/04/25 14:01:15;;;;;;;;;;;11.20;99.90;;;;;;5072736;28;19919;-58
2022/04/25 14:03:41;;;;;;;;;;;11.10;99.90;;;;;;5075457;28;19912;-58
2022/04/25 14:06:06;;;;;;;;;;;11.20;99.90;;;;;;5079861;28;19956;-58
2022/04/25 14:08:32;;;;;;;;;;;11.30;99.90;;;;;;5070651;28;19908;-60
2022/04/25 14:10:58;;;;;;;;;;;11.30;99.90;;;;;;5074099;28;19915;-59
2022/04/25 14:13:27;;;;;;;;;;;11.40;99.90;;;;;;5074939;28;20416;-58
2022/04/25 14:15:52;;;;;;;;;;;11.40;99.90;;;;;;5072523;28;19916;-59
2022/04/25 14:18:18;;;;;;;;;;;11.70;99.90;;;;;;5067901;28;19912;-56
2022/04/25 14:20:43;;;;;;;;;;;12.00;99.90;;;;;;5061943;28;19962;-61
2022/04/25 14:23:09;;;;;;;;;;;12.30;99.90;;;;;;5071147;28;19947;-58
2022/04/25 14:25:35;;;;;;;;;;;12.50;99.90;;;;;;5068234;28;19912;-58
2022/04/25 14:28:03;;;;;;;;;;;12.80;99.90;;;;;;5066439;28;19913;-61
2022/04/25 14:30:29;;;;;;;;;;;13.40;99.90;;;;;;5066527;28;19912;-57
2022/04/25 14:32:55;;;;;;;;;;;13.70;99.90;;;;;;5066237;28;20051;-61
2022/04/25 14:35:20;;;;;;;;;;;14.20;99.90;;;;;;5066455;28;20388;-61
2022/04/25 14:37:46;;;;;;;;;;;14.20;99.90;;;;;;5073158;28;20367;-60
2022/04/25 14:40:12;;;;;;;;;;;14.10;99.90;;;;;;5066339;28;19912;-61
2022/04/25 14:42:38;;;;;;;;;;;14.00;99.90;;;;;;5069851;28;20061;-62
2022/04/25 14:45:04;;;;;;;;;;;14.00;99.90;;;;;;5069746;28;19916;-61
2022/04/25 14:47:29;;;;;;;;;;;14.10;99.90;;;;;;5068697;28;19909;-62
2022/04/25 14:55:23;;;;;;;;;;;14.50;99.90;;;;;;5077854;28;19958;-62
2022/04/25 14:57:50;;;;;;;;;;;14.60;99.90;;;;;;5070962;28;19944;-62
2022/04/25 15:00:19;;;;;;;;;;;14.90;99.90;;;;;;5070444;28;20157;-61
2022/04/25 15:02:45;;;;;;;;;;;14.90;99.90;;;;;;5068925;28;19916;-59
2022/04/25 15:05:11;;;;;;;;;;;14.80;99.90;;;;;;5068828;28;20349;-61